createdAt,value
2023-01-19T00:00:23.685Z,4.70
2023-01-19T00:03:26.032Z,4.53
2023-01-19T00:06:28.493Z,5.50
2023-01-19T00:09:33.580Z,4.28
2023-01-19T00:12:35.931Z,3.35
2023-01-19T00:15:38.294Z,3.00
2023-01-19T00:18:40.796Z,3.30
2023-01-19T00:21:43.106Z,4.47
2023-01-19T00:24:46.163Z,4.88
2023-01-19T00:27:49.554Z,4.78
2023-01-19T00:30:52.300Z,5.60
2023-01-19T00:33:54.839Z,4.57
2023-01-19T00:36:57.130Z,6.90
2023-01-19T00:39:59.418Z,4.18
2023-01-19T00:43:02.166Z,4.25
2023-01-19T00:46:04.641Z,3.65
2023-01-19T00:49:07.010Z,5.00
2023-01-19T00:52:09.371Z,3.70
2023-01-19T00:55:14.289Z,4.00
2023-01-19T00:58:16.657Z,3.40
2023-01-19T01:01:19.012Z,3.58
2023-01-19T01:04:21.352Z,3.43
2023-01-19T01:07:24.516Z,4.50
2023-01-19T01:10:28.995Z,3.75
2023-01-19T01:13:31.676Z,3.63
2023-01-19T01:16:34.257Z,2.42
2023-01-19T01:19:37.475Z,2.30
2023-01-19T01:22:39.733Z,3.47
2023-01-19T01:25:42.693Z,2.63
2023-01-19T01:28:44.926Z,3.13
2023-01-19T01:31:47.310Z,4.25
2023-01-19T01:34:49.666Z,5.13
2023-01-19T01:37:51.963Z,5.60
2023-01-19T01:40:54.274Z,7.63
2023-01-19T01:44:01.905Z,7.25
2023-01-19T01:47:04.750Z,5.57
2023-01-19T01:50:14.578Z,6.37
2023-01-19T01:53:16.859Z,5.80
2023-01-19T01:56:22.334Z,6.72
2023-01-19T01:59:40.802Z,4.72
2023-01-19T02:02:52.323Z,4.90
2023-01-19T02:05:59.352Z,5.20
2023-01-19T02:09:27.271Z,5.57
2023-01-19T02:12:48.016Z,6.10
2023-01-19T02:15:55.630Z,6.35
2023-01-19T02:18:58.235Z,6.00
2023-01-19T02:22:46.855Z,5.50
2023-01-19T02:25:49.493Z,4.90
2023-01-19T02:28:58.871Z,5.30
2023-01-19T02:32:02.449Z,4.95
2023-01-19T02:35:05.475Z,3.70
2023-01-19T02:38:07.960Z,4.57
2023-01-19T02:41:12.341Z,4.07
2023-01-19T02:44:15.079Z,4.20
2023-01-19T02:47:17.413Z,4.55
2023-01-19T02:50:46.022Z,4.20
2023-01-19T02:53:57.670Z,3.70
2023-01-19T02:57:15.133Z,3.70
2023-01-19T03:00:27.323Z,4.15
2023-01-19T03:03:39.025Z,3.15
2023-01-19T03:06:44.879Z,2.90
2023-01-19T03:09:55.570Z,3.60
2023-01-19T03:13:04.156Z,3.67
2023-01-19T03:16:48.834Z,3.22
2023-01-19T03:19:52.290Z,4.55
2023-01-19T03:23:03.342Z,2.17
2023-01-19T03:26:09.801Z,2.03
2023-01-19T03:29:14.332Z,2.03
2023-01-19T03:32:18.243Z,3.22
2023-01-19T03:35:23.070Z,4.07
2023-01-19T03:38:26.372Z,2.15
2023-01-19T03:41:29.955Z,4.90
2023-01-19T03:44:33.782Z,2.53
2023-01-19T03:47:36.573Z,2.20
2023-01-19T03:50:39.049Z,2.85
2023-01-19T03:53:41.747Z,3.55
2023-01-19T03:56:44.963Z,1.40
2023-01-19T03:59:47.934Z,1.33
2023-01-19T04:02:50.333Z,3.85
2023-01-19T04:05:52.645Z,2.42
2023-01-19T04:08:55.030Z,1.50
2023-01-19T04:11:57.312Z,2.00
2023-01-19T04:14:59.794Z,1.50
2023-01-19T04:18:02.141Z,1.67
2023-01-19T04:21:07.124Z,1.60
2023-01-19T04:24:10.206Z,1.45
2023-01-19T04:27:12.453Z,2.07
2023-01-19T04:30:15.167Z,2.40
2023-01-19T04:33:17.749Z,2.28
2023-01-19T04:36:19.999Z,2.97
2023-01-19T04:39:23.217Z,3.42
2023-01-19T04:42:25.468Z,3.57
2023-01-19T04:45:27.803Z,2.30
2023-01-19T04:48:30.106Z,1.80
2023-01-19T04:51:32.430Z,1.80
2023-01-19T04:54:34.845Z,2.92
2023-01-19T04:57:37.191Z,1.63
2023-01-19T05:00:39.502Z,1.53
2023-01-19T05:03:41.802Z,2.08
2023-01-19T05:06:44.131Z,2.10
2023-01-19T05:09:46.346Z,7.22
2023-01-19T05:12:48.756Z,1.37
2023-01-19T05:15:51.197Z,1.50
2023-01-19T05:18:53.551Z,1.27
2023-01-19T05:21:55.832Z,2.08
2023-01-19T05:24:58.404Z,1.15
2023-01-19T05:28:00.677Z,0.93
2023-01-19T05:31:03.084Z,0.70
2023-01-19T05:34:05.644Z,0.93
2023-01-19T05:37:07.932Z,0.80
2023-01-19T05:40:11.278Z,0.40
2023-01-19T05:43:14.611Z,1.37
2023-01-19T05:46:17.116Z,0.67
2023-01-19T05:49:19.419Z,2.08
2023-01-19T05:52:22.009Z,0.55
2023-01-19T05:55:24.382Z,1.33
2023-01-19T05:58:26.697Z,1.33
2023-01-19T06:01:29.124Z,1.77
2023-01-19T06:04:31.436Z,3.08
2023-01-19T06:07:33.733Z,3.40
2023-01-19T06:10:36.094Z,2.67
2023-01-19T06:13:41.364Z,1.53
2023-01-19T06:16:47.628Z,1.87
2023-01-19T06:19:49.984Z,1.45
2023-01-19T06:22:52.545Z,0.88
2023-01-19T06:25:57.452Z,6.65
2023-01-19T06:28:59.775Z,0.80
2023-01-19T06:32:02.084Z,1.87
2023-01-19T06:35:04.829Z,2.03
2023-01-19T06:38:08.305Z,1.75
2023-01-19T06:41:10.547Z,3.08
2023-01-19T06:44:12.845Z,1.20
2023-01-19T06:47:16.586Z,3.03
2023-01-19T06:50:18.950Z,2.35
2023-01-19T06:53:22.325Z,0.93
2023-01-19T06:56:24.590Z,1.10
2023-01-19T06:59:27.035Z,2.00
2023-01-19T07:02:29.505Z,2.00
2023-01-19T07:05:31.954Z,11.48
2023-01-19T07:08:36.033Z,2.85
2023-01-19T07:11:38.401Z,1.85
2023-01-19T07:14:41.025Z,2.10
2023-01-19T07:17:43.841Z,1.93
2023-01-19T07:20:49.177Z,2.08
2023-01-19T07:23:52.350Z,3.40
2023-01-19T07:26:54.590Z,3.10
2023-01-19T07:29:57.119Z,2.77
2023-01-19T07:33:00.095Z,5.03
2023-01-19T07:36:02.682Z,3.15
2023-01-19T07:39:04.880Z,3.08
2023-01-19T07:42:07.425Z,4.68
2023-01-19T07:45:12.037Z,3.57
2023-01-19T07:48:14.706Z,5.03
2023-01-19T07:51:19.750Z,4.18
2023-01-19T07:54:22.362Z,7.05
2023-01-19T07:57:24.647Z,3.40
2023-01-19T08:00:27.104Z,7.17
2023-01-19T08:03:29.306Z,5.40
2023-01-19T08:06:36.098Z,3.13
2023-01-19T08:09:38.328Z,5.05
2023-01-19T08:12:42.020Z,5.88
2023-01-19T08:15:44.640Z,8.33
2023-01-19T08:18:46.885Z,3.30
2023-01-19T08:21:49.137Z,3.47
2023-01-19T08:24:51.922Z,3.05
2023-01-19T08:27:55.427Z,2.65
2023-01-19T08:30:57.950Z,3.60
2023-01-19T08:34:00.410Z,3.83
2023-01-19T08:37:02.766Z,2.70
2023-01-19T08:40:05.699Z,6.05
2023-01-19T08:43:17.597Z,5.55
2023-01-19T08:46:21.927Z,3.33
2023-01-19T08:49:24.292Z,4.67
2023-01-19T08:52:26.741Z,4.50
2023-01-19T08:55:29.736Z,4.30
2023-01-19T08:58:32.034Z,4.57
2023-01-19T09:01:34.333Z,6.03
2023-01-19T09:04:36.736Z,6.93
2023-01-19T09:07:39.033Z,4.30
2023-01-19T09:10:47.037Z,5.10
2023-01-19T09:13:49.864Z,6.40
2023-01-19T09:16:52.317Z,9.50
2023-01-19T09:19:54.654Z,6.47
2023-01-19T09:23:00.180Z,5.60
2023-01-19T09:26:04.570Z,5.18
2023-01-19T09:29:06.891Z,6.63
2023-01-19T09:32:11.170Z,7.00
2023-01-19T09:35:13.879Z,5.90
2023-01-19T09:38:16.989Z,6.80
2023-01-19T09:41:21.996Z,5.95
2023-01-19T09:44:30.575Z,5.57
2023-01-19T09:47:33.548Z,7.17
2023-01-19T09:50:39.579Z,7.27
2023-01-19T09:53:56.522Z,7.65
2023-01-19T09:56:58.907Z,7.20
2023-01-19T10:00:01.353Z,7.55
2023-01-19T10:03:23.901Z,9.63
2023-01-19T10:06:27.017Z,6.27
2023-01-19T10:10:10.837Z,8.57
2023-01-19T10:13:22.062Z,9.32
2023-01-19T10:16:33.984Z,9.00
2023-01-19T10:19:38.389Z,8.47
2023-01-19T10:22:43.423Z,8.03
2023-01-19T10:25:46.346Z,10.75
2023-01-19T10:28:50.769Z,10.75
2023-01-19T10:32:07.396Z,12.70
2023-01-19T10:35:21.909Z,11.23
2023-01-19T10:38:24.655Z,10.80
2023-01-19T10:41:32.197Z,12.85
2023-01-19T10:44:37.023Z,10.98
2023-01-19T10:47:39.964Z,10.80
2023-01-19T10:50:42.261Z,12.83
2023-01-19T10:53:54.638Z,10.80
2023-01-19T10:57:03.578Z,10.43
2023-01-19T11:00:07.598Z,10.93
2023-01-19T11:03:28.868Z,9.95
2023-01-19T11:06:33.123Z,7.73
2023-01-19T11:09:35.551Z,7.47
2023-01-19T11:12:43.526Z,11.80
2023-01-19T11:15:57.602Z,6.97
2023-01-19T11:19:02.155Z,6.63
2023-01-19T11:22:27.039Z,7.70
2023-01-19T11:25:32.415Z,5.90
2023-01-19T11:28:37.879Z,9.35
2023-01-19T11:31:40.522Z,7.20
2023-01-19T11:34:42.857Z,5.78
2023-01-19T11:37:45.177Z,8.20
2023-01-19T11:40:53.263Z,6.87
2023-01-19T11:44:23.424Z,10.10
2023-01-19T11:47:30.805Z,7.10
2023-01-19T11:50:45.722Z,7.60
2023-01-19T11:53:52.114Z,8.33
2023-01-19T11:56:54.723Z,7.00
2023-01-19T12:00:03.497Z,6.88
2023-01-19T12:03:37.997Z,8.55
2023-01-19T12:06:47.897Z,8.63
2023-01-19T12:09:54.792Z,8.53
2023-01-19T12:12:57.548Z,13.43
2023-01-19T12:16:03.341Z,11.30
2023-01-19T12:19:11.401Z,10.65
2023-01-19T12:22:15.957Z,10.30
2023-01-19T12:25:23.241Z,12.50
2023-01-19T12:28:31.805Z,12.60
2023-01-19T12:31:35.228Z,11.60
2023-01-19T12:34:41.538Z,12.95
2023-01-19T12:37:45.367Z,12.25
2023-01-19T12:40:47.629Z,13.37
2023-01-19T12:44:08.549Z,13.63
2023-01-19T12:47:10.902Z,11.80
2023-01-19T12:50:19.272Z,10.45
2023-01-19T12:53:22.737Z,11.57
2023-01-19T12:56:36.318Z,11.60
2023-01-19T12:59:39.407Z,9.80
2023-01-19T13:02:44.649Z,10.70
2023-01-19T13:05:55.492Z,10.02
2023-01-19T13:09:01.009Z,9.35
2023-01-19T13:12:15.348Z,12.50
2023-01-19T13:15:35.626Z,11.03
2023-01-19T13:18:40.940Z,10.80
2023-01-19T13:21:47.799Z,14.50
2023-01-19T13:25:13.797Z,10.85
2023-01-19T13:28:17.883Z,11.23
2023-01-19T13:31:20.484Z,9.20
2023-01-19T13:34:25.225Z,9.27
2023-01-19T13:37:39.345Z,8.52
2023-01-19T13:40:41.677Z,11.00
2023-01-19T13:43:44.174Z,9.90
2023-01-19T13:46:47.209Z,9.83
2023-01-19T13:49:51.684Z,10.10
2023-01-19T13:52:55.720Z,9.90
2023-01-19T13:56:16.529Z,10.80
2023-01-19T13:59:18.830Z,10.00
2023-01-19T14:02:21.415Z,11.87
2023-01-19T14:05:25.836Z,10.48
2023-01-19T14:08:29.246Z,10.45
2023-01-19T14:11:31.533Z,12.43
2023-01-19T14:14:36.402Z,9.73
2023-01-19T14:17:38.714Z,11.03
2023-01-19T14:20:42.255Z,10.32
2023-01-19T14:23:49.997Z,11.65
2023-01-19T14:27:27.980Z,12.88
2023-01-19T14:30:30.239Z,10.93
2023-01-19T14:33:36.993Z,10.47
2023-01-19T14:36:42.023Z,11.15
2023-01-19T14:39:46.500Z,14.20
2023-01-19T14:43:06.645Z,15.07
2023-01-19T14:46:17.482Z,13.67
2023-01-19T14:49:24.860Z,13.77
2023-01-19T14:52:34.918Z,12.23
2023-01-19T14:55:43.917Z,13.75
2023-01-19T14:58:46.179Z,16.42
2023-01-19T15:01:48.561Z,12.57
2023-01-19T15:04:55.295Z,14.43
2023-01-19T15:07:57.589Z,13.05
2023-01-19T15:11:21.374Z,15.73
2023-01-19T15:14:23.645Z,14.48
2023-01-19T15:17:25.878Z,15.33
2023-01-19T15:20:28.620Z,14.23
2023-01-19T15:23:34.324Z,14.98
2023-01-19T15:26:38.149Z,14.90
2023-01-19T15:29:40.475Z,16.85
2023-01-19T15:32:44.010Z,16.27
2023-01-19T15:35:46.364Z,14.87
2023-01-19T15:38:51.568Z,17.05
2023-01-19T15:41:54.052Z,17.27
2023-01-19T15:44:56.263Z,16.52
2023-01-19T15:47:59.159Z,17.47
2023-01-19T15:51:01.437Z,18.90
2023-01-19T15:54:03.866Z,17.25
2023-01-19T15:57:06.128Z,17.10
2023-01-19T16:00:09.576Z,22.25
2023-01-19T16:03:14.878Z,21.07
2023-01-19T16:06:18.107Z,19.23
2023-01-19T16:09:20.378Z,21.38
2023-01-19T16:12:22.607Z,20.63
2023-01-19T16:15:25.474Z,20.52
2023-01-19T16:18:27.843Z,19.63
2023-01-19T16:21:30.183Z,21.10
2023-01-19T16:24:32.631Z,24.55
2023-01-19T16:27:34.899Z,20.70
2023-01-19T16:30:37.226Z,22.45
2023-01-19T16:33:39.577Z,20.20
2023-01-19T16:36:42.111Z,22.53
2023-01-19T16:39:45.487Z,20.58
2023-01-19T16:42:47.935Z,19.73
2023-01-19T16:45:59.155Z,22.35
2023-01-19T16:49:04.741Z,21.90
2023-01-19T16:52:07.518Z,23.60
2023-01-19T16:55:11.324Z,20.08
2023-01-19T16:58:13.560Z,19.63
2023-01-19T17:01:20.208Z,19.00
2023-01-19T17:04:23.019Z,19.57
2023-01-19T17:07:25.332Z,20.07
2023-01-19T17:10:27.616Z,18.02
2023-01-19T17:13:30.833Z,19.60
2023-01-19T17:16:34.492Z,15.45
2023-01-19T17:19:37.422Z,17.17
2023-01-19T17:22:39.782Z,18.30
2023-01-19T17:25:42.041Z,15.05
2023-01-19T17:28:44.854Z,17.90
2023-01-19T17:31:50.619Z,16.40
2023-01-19T17:34:52.999Z,15.23
2023-01-19T17:37:56.057Z,17.73
2023-01-19T17:40:58.365Z,13.77
2023-01-19T17:44:04.786Z,18.13
2023-01-19T17:47:07.135Z,17.60
2023-01-19T17:50:10.159Z,19.77
2023-01-19T17:53:12.609Z,16.00
2023-01-19T17:56:16.270Z,15.23
2023-01-19T17:59:18.651Z,16.77
2023-01-19T18:02:24.599Z,17.38
2023-01-19T18:05:26.966Z,21.23
2023-01-19T18:08:29.428Z,17.80
2023-01-19T18:11:31.772Z,16.38
2023-01-19T18:14:34.118Z,17.65
2023-01-19T18:17:36.474Z,15.73
2023-01-19T18:20:40.128Z,15.77
2023-01-19T18:23:46.107Z,18.63
2023-01-19T18:26:48.544Z,16.50
2023-01-19T18:29:50.881Z,16.42
2023-01-19T18:32:53.251Z,16.67
2023-01-19T18:35:55.538Z,20.13
2023-01-19T18:38:57.994Z,17.37
2023-01-19T18:42:00.732Z,15.95
2023-01-19T18:45:03.319Z,17.08
2023-01-19T18:48:05.970Z,16.00
2023-01-19T18:51:10.135Z,18.63
2023-01-19T18:54:13.295Z,15.87
2023-01-19T18:57:17.984Z,14.88
2023-01-19T19:00:20.771Z,17.40
2023-01-19T19:03:23.460Z,16.95
2023-01-19T19:06:27.135Z,12.33
2023-01-19T19:09:29.607Z,12.93
2023-01-19T19:12:32.126Z,13.73
2023-01-19T19:15:34.483Z,18.20
2023-01-19T19:18:37.791Z,17.08
2023-01-19T19:21:40.461Z,12.13
2023-01-19T19:24:42.799Z,15.57
2023-01-19T19:27:47.879Z,14.88
2023-01-19T19:30:52.642Z,14.85
2023-01-19T19:33:56.148Z,14.73
2023-01-19T19:37:00.367Z,12.23
2023-01-19T19:40:03.967Z,16.77
2023-01-19T19:43:06.395Z,15.93
2023-01-19T19:46:11.516Z,16.73
2023-01-19T19:49:14.389Z,15.95
2023-01-19T19:52:17.418Z,13.93
2023-01-19T19:55:19.728Z,15.47
2023-01-19T19:58:22.003Z,14.85
2023-01-19T20:01:29.039Z,16.75
2023-01-19T20:04:32.404Z,15.93
2023-01-19T20:07:34.749Z,16.07
2023-01-19T20:10:38.106Z,17.07
2023-01-19T20:13:42.484Z,16.60
2023-01-19T20:16:47.863Z,14.32
2023-01-19T20:19:50.415Z,17.30
2023-01-19T20:22:53.090Z,15.53
2023-01-19T20:25:55.480Z,14.83
2023-01-19T20:29:03.176Z,16.85
2023-01-19T20:32:05.560Z,14.65
2023-01-19T20:35:08.251Z,16.77
2023-01-19T20:38:10.691Z,16.67
2023-01-19T20:41:13.543Z,16.77
2023-01-19T20:44:22.155Z,14.73
2023-01-19T20:47:25.445Z,14.55
2023-01-19T20:50:27.829Z,15.13
2023-01-19T20:53:31.481Z,17.43
2023-01-19T20:56:33.750Z,14.80
2023-01-19T20:59:38.214Z,17.70
2023-01-19T21:02:40.627Z,18.15
2023-01-19T21:05:43.042Z,16.45
2023-01-19T21:08:46.037Z,15.90
2023-01-19T21:11:48.386Z,21.70
2023-01-19T21:14:50.710Z,16.15
2023-01-19T21:17:53.013Z,16.20
2023-01-19T21:20:57.557Z,14.60
2023-01-19T21:24:02.999Z,19.93
2023-01-19T21:27:05.332Z,15.87
2023-01-19T21:30:08.453Z,18.63
2023-01-19T21:33:11.076Z,18.80
2023-01-19T21:36:13.453Z,14.80
2023-01-19T21:39:17.363Z,16.83
2023-01-19T21:42:19.825Z,16.47
2023-01-19T21:45:23.115Z,16.98
2023-01-19T21:48:25.523Z,16.90
2023-01-19T21:51:29.182Z,17.98
2023-01-19T21:54:31.751Z,18.23
2023-01-19T21:57:34.053Z,18.87
2023-01-19T22:00:36.389Z,14.02
2023-01-19T22:03:38.811Z,17.42
2023-01-19T22:06:44.067Z,14.75
2023-01-19T22:09:46.747Z,17.67
2023-01-19T22:12:49.073Z,15.87
2023-01-19T22:15:59.474Z,16.50
2023-01-19T22:19:02.415Z,17.23
2023-01-19T22:22:04.826Z,13.70
2023-01-19T22:25:07.395Z,14.83
2023-01-19T22:28:09.709Z,12.97
2023-01-19T22:31:17.803Z,15.73
2023-01-19T22:34:20.227Z,14.88
2023-01-19T22:37:22.493Z,17.88
2023-01-19T22:40:24.731Z,14.10
2023-01-19T22:43:26.967Z,15.70
2023-01-19T22:46:32.238Z,16.50
2023-01-19T22:49:34.566Z,15.25
2023-01-19T22:52:36.900Z,13.95
2023-01-19T22:55:39.170Z,14.30
2023-01-19T22:58:44.185Z,14.13
2023-01-19T23:01:47.228Z,15.73
2023-01-19T23:04:49.796Z,14.25
2023-01-19T23:07:52.103Z,13.35
2023-01-19T23:10:54.525Z,14.00
2023-01-19T23:13:58.378Z,13.40
2023-01-19T23:17:00.791Z,12.70
2023-01-19T23:20:05.264Z,13.38
2023-01-19T23:23:07.576Z,11.53
2023-01-19T23:26:15.443Z,13.13
2023-01-19T23:29:18.212Z,12.43
2023-01-19T23:32:20.671Z,13.23
2023-01-19T23:35:22.927Z,15.35
2023-01-19T23:38:25.205Z,13.67
2023-01-19T23:41:29.821Z,13.37
2023-01-19T23:44:32.144Z,12.57
2023-01-19T23:47:35.897Z,14.27
2023-01-19T23:50:40.818Z,11.73
2023-01-19T23:53:43.481Z,11.80
2023-01-19T23:56:45.862Z,12.63
2023-01-19T23:59:48.277Z,13.70
